Time;durP1;ratioP1;P1;durP2;ratioP2;P2;SDS_P1;SDS_P2;PMS_P1;PMS_P2;Temp;Humidity;BMP_temperature;BMP_pressure;BME280_temperature;BME280_humidity;BME280_pressure;Samples;Min_cycle;Max_cycle;Signal;HPM_P1;HPM_P2
2023/10/06 00:00:50;;;;;;;15.52;6.05;;;;;;;;;;5079043;27;98224;-72
2023/10/06 00:03:16;;;;;;;9.23;4.60;;;;;;;;;;5068084;27;98382;-73
2023/10/06 00:05:49;;;;;;;14.95;4.75;;;;;;;;;;5070234;27;99869;-72
2023/10/06 00:08:17;;;;;;;14.07;4.78;;;;;;;;;;5065285;27;99648;-70
2023/10/06 00:10:54;;;;;;;11.30;5.05;;;;;;;;;;5068454;27;98889;-71
2023/10/06 00:13:31;;;;;;;12.02;3.83;;;;;;;;;;5055482;27;99032;-72
2023/10/06 00:16:01;;;;;;;7.68;3.80;;;;;;;;;;5052332;27;99403;-72
2023/10/06 00:18:27;;;;;;;7.60;4.60;;;;;;;;;;5059060;27;100234;-71
2023/10/06 00:21:04;;;;;;;13.50;4.82;;;;;;;;;;5071239;27;98234;-71
2023/10/06 00:23:38;;;;;;;7.13;4.63;;;;;;;;;;5069202;27;98396;-70
2023/10/06 00:26:08;;;;;;;13.45;4.97;;;;;;;;;;5075067;27;100180;-71
2023/10/06 00:28:39;;;;;;;9.27;4.63;;;;;;;;;;5063399;27;98336;-71
2023/10/06 00:31:08;;;;;;;12.82;4.43;;;;;;;;;;5060303;27;99106;-70
2023/10/06 00:33:37;;;;;;;6.85;4.47;;;;;;;;;;5070036;27;99120;-71
2023/10/06 00:36:14;;;;;;;6.88;4.65;;;;;;;;;;5061988;27;98927;-71
2023/10/06 00:38:50;;;;;;;8.15;4.47;;;;;;;;;;5066071;27;98621;-71
2023/10/06 00:41:19;;;;;;;9.77;5.20;;;;;;;;;;5071355;27;98056;-71
2023/10/06 00:43:46;;;;;;;14.68;5.22;;;;;;;;;;5071306;27;99876;-71
2023/10/06 00:46:14;;;;;;;10.77;5.57;;;;;;;;;;5051423;27;98809;-72
2023/10/06 00:48:41;;;;;;;10.95;5.13;;;;;;;;;;5065414;27;98279;-72
2023/10/06 00:51:22;;;;;;;14.18;5.00;;;;;;;;;;5075191;27;98456;-72
2023/10/06 00:53:52;;;;;;;12.13;4.97;;;;;;;;;;5072143;27;98190;-71
2023/10/06 00:56:23;;;;;;;5.38;4.85;;;;;;;;;;5072592;27;98667;-71
2023/10/06 00:58:50;;;;;;;16.20;5.65;;;;;;;;;;5072959;27;99277;-72
2023/10/06 01:01:21;;;;;;;7.70;4.72;;;;;;;;;;5071009;27;98260;-71
2023/10/06 01:03:54;;;;;;;6.18;4.93;;;;;;;;;;5071904;27;98773;-72
2023/10/06 01:06:27;;;;;;;14.60;5.38;;;;;;;;;;5069066;27;100957;-72
2023/10/06 01:09:05;;;;;;;10.73;5.60;;;;;;;;;;5070996;27;98174;-72
2023/10/06 01:11:45;;;;;;;9.98;5.15;;;;;;;;;;5064369;27;99262;-71
2023/10/06 01:14:14;;;;;;;8.90;4.68;;;;;;;;;;5054692;27;100963;-72
2023/10/06 01:16:44;;;;;;;14.05;5.03;;;;;;;;;;5061197;27;100741;-72
2023/10/06 01:21:47;;;;;;;7.95;4.75;;;;;;;;;;5068534;27;99096;-71
2023/10/06 01:24:15;;;;;;;10.23;5.43;;;;;;;;;;5072298;27;98684;-71
2023/10/06 01:26:42;;;;;;;8.05;5.18;;;;;;;;;;5063019;27;100401;-71
2023/10/06 01:29:10;;;;;;;12.73;5.50;;;;;;;;;;5049992;27;98270;-71
2023/10/06 01:31:40;;;;;;;8.50;5.07;;;;;;;;;;5065355;27;98566;-72
2023/10/06 01:34:15;;;;;;;13.68;5.75;;;;;;;;;;5053547;27;101084;-72
2023/10/06 01:36:42;;;;;;;12.82;5.85;;;;;;;;;;5082224;27;98682;-71
2023/10/06 01:39:18;;;;;;;17.77;5.80;;;;;;;;;;5066713;27;99162;-72
2023/10/06 01:41:47;;;;;;;15.15;5.10;;;;;;;;;;5071093;27;98487;-72
2023/10/06 01:44:15;;;;;;;5.53;4.10;;;;;;;;;;5069647;27;99041;-71
2023/10/06 01:46:54;;;;;;;10.27;4.90;;;;;;;;;;5062598;27;99222;-71
2023/10/06 01:49:21;;;;;;;7.75;4.63;;;;;;;;;;5052032;27;98777;-72
2023/10/06 01:51:51;;;;;;;7.30;4.30;;;;;;;;;;5067966;27;99858;-71
2023/10/06 01:54:34;;;;;;;8.90;4.78;;;;;;;;;;5080898;27;98713;-72
2023/10/06 01:57:04;;;;;;;14.80;4.32;;;;;;;;;;5068653;27;98719;-72
2023/10/06 01:59:30;;;;;;;9.13;4.40;;;;;;;;;;5048847;27;98805;-72
2023/10/06 02:02:01;;;;;;;12.43;4.70;;;;;;;;;;5064781;27;98201;-72
2023/10/06 02:04:39;;;;;;;10.25;4.38;;;;;;;;;;5068283;27;98493;-71
2023/10/06 02:07:10;;;;;;;7.20;4.88;;;;;;;;;;5060311;27;99227;-72
2023/10/06 02:09:38;;;;;;;;;;;;;;;;;;5082952;27;99345;-72
2023/10/06 02:12:05;;;;;;;12.05;3.97;;;;;;;;;;5067889;27;123022;-71
2023/10/06 02:14:32;;;;;;;14.63;4.35;;;;;;;;;;5067904;27;99952;-71
2023/10/06 02:17:04;;;;;;;11.55;4.30;;;;;;;;;;5070196;27;99010;-71
2023/10/06 02:19:32;;;;;;;13.45;5.28;;;;;;;;;;5062628;27;98718;-71
2023/10/06 02:21:59;;;;;;;11.77;5.18;;;;;;;;;;5067004;27;99407;-71
2023/10/06 02:24:26;;;;;;;14.50;4.57;;;;;;;;;;5054866;27;99371;-71
2023/10/06 02:27:00;;;;;;;12.20;4.82;;;;;;;;;;5060041;27;99002;-71
2023/10/06 02:29:28;;;;;;;10.98;4.90;;;;;;;;;;5061292;27;99448;-72
2023/10/06 02:32:03;;;;;;;10.88;4.65;;;;;;;;;;5060657;27;98572;-72
2023/10/06 02:34:35;;;;;;;14.32;5.47;;;;;;;;;;5068295;27;98816;-72
2023/10/06 02:37:04;;;;;;;8.18;4.40;;;;;;;;;;5099027;27;98380;-71
2023/10/06 02:39:50;;;;;;;10.90;5.00;;;;;;;;;;5055548;27;99559;-71
2023/10/06 02:42:19;;;;;;;8.25;4.32;;;;;;;;;;5075874;27;99551;-72
2023/10/06 02:44:46;;;;;;;11.00;5.13;;;;;;;;;;5069803;27;98532;-72
2023/10/06 02:47:14;;;;;;;13.38;4.80;;;;;;;;;;5067735;27;99059;-72
2023/10/06 02:49:47;;;;;;;10.05;5.15;;;;;;;;;;5061291;27;98203;-72
2023/10/06 02:52:29;;;;;;;9.98;4.82;;;;;;;;;;5068754;27;99527;-72
2023/10/06 02:55:08;;;;;;;15.63;5.60;;;;;;;;;;5057017;27;100052;-71
2023/10/06 02:57:35;;;;;;;9.70;5.32;;;;;;;;;;5047916;27;98277;-71
2023/10/06 03:03:03;;;;;;;17.08;5.38;;;;;;;;;;5068507;27;99307;-72
2023/10/06 03:05:33;;;;;;;11.43;6.40;;;;;;;;;;5070452;27;98286;-72
2023/10/06 03:08:08;;;;;;;6.95;5.40;;;;;;;;;;5062541;27;99025;-71
2023/10/06 03:10:42;;;;;;;10.05;5.07;;;;;;;;;;5062564;27;99260;-71
2023/10/06 03:13:13;;;;;;;16.27;5.95;;;;;;;;;;5064224;27;100135;-73
2023/10/06 03:15:47;;;;;;;8.88;5.82;;;;;;;;;;5059786;27;99133;-71
2023/10/06 03:18:15;;;;;;;14.18;6.25;;;;;;;;;;5058348;27;98222;-71
2023/10/06 03:20:59;;;;;;;13.50;6.70;;;;;;;;;;5067331;27;100346;-71
2023/10/06 03:23:36;;;;;;;16.27;6.40;;;;;;;;;;5050421;27;98917;-71
2023/10/06 03:26:04;;;;;;;12.05;5.43;;;;;;;;;;5055923;27;98542;-72
2023/10/06 03:28:36;;;;;;;11.55;6.18;;;;;;;;;;5060663;27;98778;-71
2023/10/06 03:31:21;;;;;;;13.05;6.47;;;;;;;;;;5067560;27;98504;-72
2023/10/06 03:33:52;;;;;;;12.73;5.53;;;;;;;;;;5067331;27;100100;-71
2023/10/06 03:36:27;;;;;;;9.05;5.70;;;;;;;;;;5065808;27;102020;-72
2023/10/06 03:38:57;;;;;;;20.50;6.80;;;;;;;;;;5061851;27;99518;-72
2023/10/06 03:41:31;;;;;;;;;;;;;;;;;;5066486;27;98946;-71
2023/10/06 03:44:00;;;;;;;11.02;6.20;;;;;;;;;;5063994;27;101465;-70
2023/10/06 03:46:36;;;;;;;11.32;6.78;;;;;;;;;;5066741;27;98297;-72
2023/10/06 03:49:03;;;;;;;17.02;6.47;;;;;;;;;;5053920;27;100593;-72
2023/10/06 03:51:33;;;;;;;10.40;5.88;;;;;;;;;;5059253;27;98660;-72
2023/10/06 03:54:00;;;;;;;8.68;6.13;;;;;;;;;;5061236;27;100439;-72
2023/10/06 03:56:26;;;;;;;12.80;6.45;;;;;;;;;;5075848;27;98741;-72
2023/10/06 03:58:54;;;;;;;12.38;6.85;;;;;;;;;;5066077;27;98505;-72
2023/10/06 04:01:26;;;;;;;9.10;6.13;;;;;;;;;;5055182;27;98657;-73
2023/10/06 04:03:59;;;;;;;19.60;5.97;;;;;;;;;;5055568;27;99481;-72
2023/10/06 04:06:26;;;;;;;15.00;6.72;;;;;;;;;;5071318;27;98376;-71
2023/10/06 04:08:53;;;;;;;11.88;7.10;;;;;;;;;;5060796;27;99297;-71
2023/10/06 04:11:19;;;;;;;13.13;6.72;;;;;;;;;;5070209;27;99144;-72
2023/10/06 04:13:46;;;;;;;15.30;6.93;;;;;;;;;;5058202;27;98686;-70
2023/10/06 04:16:15;;;;;;;8.52;5.97;;;;;;;;;;5071886;27;98953;-71
2023/10/06 04:18:47;;;;;;;6.97;5.63;;;;;;;;;;5071486;27;98277;-72
2023/10/06 04:21:14;;;;;;;13.27;7.07;;;;;;;;;;5063898;27;98524;-71
2023/10/06 04:23:43;;;;;;;15.00;6.63;;;;;;;;;;5062290;27;99164;-72
2023/10/06 04:26:10;;;;;;;9.05;5.78;;;;;;;;;;5069848;27;98600;-72
2023/10/06 04:28:37;;;;;;;13.13;5.80;;;;;;;;;;5069344;27;98731;-72
2023/10/06 04:31:07;;;;;;;13.48;6.20;;;;;;;;;;5058389;27;100234;-71
2023/10/06 04:33:33;;;;;;;7.50;5.15;;;;;;;;;;5068700;27;98687;-74
2023/10/06 04:36:01;;;;;;;8.30;5.43;;;;;;;;;;5071775;27;98998;-72
2023/10/06 04:38:29;;;;;;;10.23;5.60;;;;;;;;;;5063987;27;98282;-72
2023/10/06 04:40:59;;;;;;;9.20;5.13;;;;;;;;;;5060358;27;98509;-73
2023/10/06 04:43:26;;;;;;;8.85;5.38;;;;;;;;;;5068270;27;99878;-71
2023/10/06 04:45:55;;;;;;;14.07;5.70;;;;;;;;;;5069294;27;98341;-72
2023/10/06 04:48:21;;;;;;;16.38;5.40;;;;;;;;;;5069390;27;99215;-72
2023/10/06 04:50:51;;;;;;;10.52;5.18;;;;;;;;;;5068811;27;98845;-72
2023/10/06 04:53:18;;;;;;;14.80;5.88;;;;;;;;;;5066248;27;100210;-71
2023/10/06 04:55:44;;;;;;;10.35;5.32;;;;;;;;;;5073349;27;98968;-70
2023/10/06 04:58:18;;;;;;;16.50;7.38;;;;;;;;;;5069600;27;98273;-71
2023/10/06 05:00:53;;;;;;;8.57;5.07;;;;;;;;;;5067903;27;99170;-71
2023/10/06 05:03:20;;;;;;;8.52;5.13;;;;;;;;;;5069262;27;99056;-72
2023/10/06 05:05:46;;;;;;;12.80;4.80;;;;;;;;;;5070045;27;98259;-72
2023/10/06 05:08:14;;;;;;;6.32;5.07;;;;;;;;;;5068946;27;98825;-72
2023/10/06 05:10:41;;;;;;;9.85;4.95;;;;;;;;;;5073349;27;100032;-71
2023/10/06 05:13:08;;;;;;;8.18;5.15;;;;;;;;;;5074217;27;98249;-71
2023/10/06 05:15:34;;;;;;;8.50;5.25;;;;;;;;;;5067361;27;98689;-73
2023/10/06 05:18:04;;;;;;;10.43;5.05;;;;;;;;;;5072992;27;100234;-71
2023/10/06 05:20:32;;;;;;;13.57;5.85;;;;;;;;;;5069237;27;98823;-72
2023/10/06 05:23:02;;;;;;;10.88;5.90;;;;;;;;;;5068013;27;100313;-72
2023/10/06 05:25:29;;;;;;;10.07;5.63;;;;;;;;;;5068601;27;98183;-71
2023/10/06 05:27:59;;;;;;;8.80;5.22;;;;;;;;;;5068177;27;98841;-72
2023/10/06 05:30:27;;;;;;;14.93;5.50;;;;;;;;;;5067417;27;99950;-72
2023/10/06 05:32:57;;;;;;;7.85;4.35;;;;;;;;;;5067630;27;98289;-72
2023/10/06 05:35:24;;;;;;;11.57;5.03;;;;;;;;;;5061992;27;98949;-71
2023/10/06 05:37:51;;;;;;;8.35;4.93;;;;;;;;;;5066592;27;99229;-72
2023/10/06 05:40:20;;;;;;;10.38;5.03;;;;;;;;;;5060938;27;98220;-71
2023/10/06 05:42:49;;;;;;;15.98;5.32;;;;;;;;;;5058843;27;98165;-71
2023/10/06 05:45:18;;;;;;;16.25;4.93;;;;;;;;;;5069156;27;98364;-72
2023/10/06 05:47:45;;;;;;;9.50;5.03;;;;;;;;;;5067003;27;99385;-71
2023/10/06 05:50:18;;;;;;;10.50;5.63;;;;;;;;;;5065344;27;99934;-71
2023/10/06 05:52:51;;;;;;;9.88;5.13;;;;;;;;;;5055758;27;98227;-71
2023/10/06 05:55:19;;;;;;;12.88;5.72;;;;;;;;;;5056829;27;98533;-71
2023/10/06 05:57:52;;;;;;;5.88;4.32;;;;;;;;;;5062571;27;99407;-71
2023/10/06 06:00:20;;;;;;;9.25;5.38;;;;;;;;;;5068901;27;98354;-71
2023/10/06 06:02:48;;;;;;;7.63;4.90;;;;;;;;;;5060931;27;100130;-72
2023/10/06 06:05:17;;;;;;;8.73;4.55;;;;;;;;;;5065074;27;98270;-75
2023/10/06 06:07:43;;;;;;;13.82;5.65;;;;;;;;;;5053581;27;99426;-75
2023/10/06 06:10:13;;;;;;;13.93;4.75;;;;;;;;;;5059997;27;100166;-71
2023/10/06 06:12:42;;;;;;;8.90;4.78;;;;;;;;;;5055436;27;99475;-71
2023/10/06 06:15:11;;;;;;;11.52;4.53;;;;;;;;;;5053396;27;99892;-71
2023/10/06 06:17:38;;;;;;;10.00;5.07;;;;;;;;;;5046206;27;98990;-72
2023/10/06 06:20:07;;;;;;;9.35;5.57;;;;;;;;;;5048861;27;98287;-72
2023/10/06 06:22:53;;;;;;;9.95;5.18;;;;;;;;;;5061151;27;98474;-71
2023/10/06 06:25:21;;;;;;;9.80;5.45;;;;;;;;;;5048554;27;98230;-72
2023/10/06 06:27:48;;;;;;;13.57;5.35;;;;;;;;;;5057041;27;99642;-72
2023/10/06 06:30:18;;;;;;;13.55;4.82;;;;;;;;;;5047876;27;99110;-72
2023/10/06 06:32:48;;;;;;;8.75;5.47;;;;;;;;;;5051363;27;98522;-71
2023/10/06 06:35:16;;;;;;;8.32;5.22;;;;;;;;;;5050519;27;98775;-72
2023/10/06 06:37:42;;;;;;;13.32;4.97;;;;;;;;;;5054774;27;99855;-73
2023/10/06 06:40:10;;;;;;;6.15;4.70;;;;;;;;;;5056834;27;98296;-71
2023/10/06 06:42:37;;;;;;;11.93;4.95;;;;;;;;;;5053904;27;99450;-73
2023/10/06 06:45:06;;;;;;;10.55;4.65;;;;;;;;;;5052926;27;99325;-72
2023/10/06 06:47:32;;;;;;;11.80;4.90;;;;;;;;;;5057429;27;99309;-71
2023/10/06 06:50:01;;;;;;;17.17;5.65;;;;;;;;;;5059346;27;99932;-72
2023/10/06 06:52:28;;;;;;;8.45;5.97;;;;;;;;;;5048719;27;98475;-74
2023/10/06 06:54:55;;;;;;;10.90;5.03;;;;;;;;;;5051699;27;99692;-74
2023/10/06 06:57:22;;;;;;;5.47;4.32;;;;;;;;;;5047618;27;99149;-73
2023/10/06 06:59:49;;;;;;;8.93;5.90;;;;;;;;;;5050174;27;98239;-74
2023/10/06 07:02:15;;;;;;;5.55;4.22;;;;;;;;;;5046223;27;99470;-74
2023/10/06 07:04:42;;;;;;;9.50;4.93;;;;;;;;;;5049405;27;99566;-71
2023/10/06 07:07:08;;;;;;;10.73;4.65;;;;;;;;;;5052101;27;98153;-72
2023/10/06 07:09:35;;;;;;;9.20;5.18;;;;;;;;;;5048272;27;98933;-71
2023/10/06 07:12:03;;;;;;;13.60;4.63;;;;;;;;;;5049243;27;99763;-72
2023/10/06 07:14:29;;;;;;;13.95;4.82;;;;;;;;;;5052407;27;98576;-72
2023/10/06 07:16:56;;;;;;;10.73;4.95;;;;;;;;;;5049091;27;99925;-72
2023/10/06 07:19:23;;;;;;;6.93;4.20;;;;;;;;;;5056296;27;99402;-71
2023/10/06 07:21:49;;;;;;;13.25;5.53;;;;;;;;;;5048628;27;98893;-71
2023/10/06 07:24:16;;;;;;;5.18;4.15;;;;;;;;;;5065966;27;98993;-71
2023/10/06 07:26:43;;;;;;;13.73;4.65;;;;;;;;;;5058650;27;98353;-72
2023/10/06 07:29:10;;;;;;;14.40;4.60;;;;;;;;;;5049814;27;98794;-72
2023/10/06 07:31:38;;;;;;;9.60;4.82;;;;;;;;;;5060083;27;98233;-74
2023/10/06 07:34:05;;;;;;;9.65;4.10;;;;;;;;;;5068147;27;98556;-72
2023/10/06 07:36:37;;;;;;;10.50;5.20;;;;;;;;;;5066726;27;100266;-72
2023/10/06 07:39:08;;;;;;;10.95;4.13;;;;;;;;;;5068009;27;98225;-71
2023/10/06 07:41:36;;;;;;;8.00;4.70;;;;;;;;;;5060416;27;99610;-72
2023/10/06 07:44:05;;;;;;;8.05;4.20;;;;;;;;;;5044995;27;99034;-72
2023/10/06 07:46:31;;;;;;;9.27;4.45;;;;;;;;;;5046748;27;98283;-72
2023/10/06 07:48:58;;;;;;;12.18;3.95;;;;;;;;;;5046022;27;98653;-72
2023/10/06 07:51:26;;;;;;;9.43;4.95;;;;;;;;;;5048972;27;98319;-72
2023/10/06 07:53:52;;;;;;;6.68;4.25;;;;;;;;;;5047197;27;98760;-72
2023/10/06 07:56:19;;;;;;;10.02;4.32;;;;;;;;;;5045857;27;100138;-71
2023/10/06 07:58:45;;;;;;;6.30;3.75;;;;;;;;;;5047092;27;98328;-72
2023/10/06 08:01:15;;;;;;;11.02;4.55;;;;;;;;;;5046706;27;98447;-71
2023/10/06 08:03:41;;;;;;;11.15;4.45;;;;;;;;;;5045486;27;99007;-72
2023/10/06 08:06:10;;;;;;;8.38;4.22;;;;;;;;;;5046790;27;98115;-71
2023/10/06 08:08:38;;;;;;;6.25;4.20;;;;;;;;;;5045655;27;99209;-73
2023/10/06 08:11:06;;;;;;;11.48;4.25;;;;;;;;;;5049064;27;100318;-71
2023/10/06 08:13:36;;;;;;;10.02;3.40;;;;;;;;;;5054865;27;99143;-72
2023/10/06 08:16:03;;;;;;;8.27;3.88;;;;;;;;;;5066715;27;99193;-72
2023/10/06 08:18:30;;;;;;;6.03;3.50;;;;;;;;;;5066051;27;98415;-73
2023/10/06 08:20:57;;;;;;;7.30;3.70;;;;;;;;;;5067192;27;99392;-73
2023/10/06 08:23:23;;;;;;;9.02;3.55;;;;;;;;;;5066501;27;99829;-72
2023/10/06 08:25:52;;;;;;;10.95;3.38;;;;;;;;;;5066629;27;98250;-73
2023/10/06 08:28:26;;;;;;;15.55;3.90;;;;;;;;;;5067274;27;99299;-72
2023/10/06 08:30:53;;;;;;;7.57;3.90;;;;;;;;;;5066653;27;99476;-72
2023/10/06 08:33:19;;;;;;;11.98;4.20;;;;;;;;;;5068278;27;98996;-71
2023/10/06 08:35:54;;;;;;;10.68;4.07;;;;;;;;;;5069177;27;99016;-72
2023/10/06 08:38:21;;;;;;;6.53;3.50;;;;;;;;;;5069658;27;98731;-72
2023/10/06 08:40:48;;;;;;;10.90;3.55;;;;;;;;;;5070554;27;98453;-73
2023/10/06 08:43:18;;;;;;;7.25;3.60;;;;;;;;;;5069373;27;99446;-72
2023/10/06 08:45:45;;;;;;;16.25;3.70;;;;;;;;;;5069535;27;98217;-72
2023/10/06 08:48:11;;;;;;;10.43;3.95;;;;;;;;;;5069963;27;99317;-72
2023/10/06 08:50:39;;;;;;;7.32;3.42;;;;;;;;;;5064022;27;100635;-72
2023/10/06 08:53:09;;;;;;;8.55;3.42;;;;;;;;;;5069760;27;98910;-72
2023/10/06 08:55:37;;;;;;;11.05;3.75;;;;;;;;;;5073187;27;99842;-73
2023/10/06 08:58:04;;;;;;;9.27;3.38;;;;;;;;;;5069121;27;98454;-72
2023/10/06 09:00:34;;;;;;;6.97;4.13;;;;;;;;;;5068913;27;99555;-72
2023/10/06 09:03:07;;;;;;;6.88;3.45;;;;;;;;;;5069718;27;99273;-71
2023/10/06 09:05:37;;;;;;;7.82;3.47;;;;;;;;;;5069982;27;98417;-72
2023/10/06 09:08:05;;;;;;;9.85;4.28;;;;;;;;;;5069026;27;98485;-72
2023/10/06 09:10:32;;;;;;;6.60;3.55;;;;;;;;;;5069332;27;99052;-73
2023/10/06 09:13:00;;;;;;;9.15;3.60;;;;;;;;;;5070076;27;98258;-73
2023/10/06 09:15:30;;;;;;;18.15;4.80;;;;;;;;;;5068931;27;98858;-72
2023/10/06 09:17:58;;;;;;;11.75;3.65;;;;;;;;;;5072758;27;99983;-72
2023/10/06 09:20:31;;;;;;;12.73;3.63;;;;;;;;;;5068744;27;98754;-72
2023/10/06 09:23:01;;;;;;;12.70;4.47;;;;;;;;;;5068786;27;99144;-72
2023/10/06 09:25:39;;;;;;;7.05;3.70;;;;;;;;;;5069118;27;98259;-72
2023/10/06 09:28:12;;;;;;;8.77;3.75;;;;;;;;;;5069104;27;98633;-73
2023/10/06 09:30:56;;;;;;;8.27;3.55;;;;;;;;;;5069290;27;100647;-72
2023/10/06 09:33:25;;;;;;;9.68;3.35;;;;;;;;;;5069250;27;98256;-73
2023/10/06 09:36:00;;;;;;;10.82;3.42;;;;;;;;;;5068749;27;98651;-72
2023/10/06 09:38:27;;;;;;;10.90;3.47;;;;;;;;;;5068989;27;99293;-72
2023/10/06 09:40:53;;;;;;;9.38;3.65;;;;;;;;;;5073476;27;98262;-71
2023/10/06 09:43:22;;;;;;;12.55;3.63;;;;;;;;;;5068046;27;98982;-72
2023/10/06 09:45:50;;;;;;;5.72;3.33;;;;;;;;;;5068858;27;98253;-72
2023/10/06 09:48:22;;;;;;;19.75;4.57;;;;;;;;;;5068080;27;99708;-72
2023/10/06 09:50:50;;;;;;;9.43;3.57;;;;;;;;;;5069204;27;100102;-72
2023/10/06 09:53:19;;;;;;;9.15;3.75;;;;;;;;;;5068898;27;98249;-72
2023/10/06 09:55:48;;;;;;;11.57;3.75;;;;;;;;;;5068631;27;99976;-72
2023/10/06 09:58:17;;;;;;;7.53;3.40;;;;;;;;;;5068767;27;100273;-72
2023/10/06 10:00:44;;;;;;;7.05;3.63;;;;;;;;;;5072168;27;98262;-72
2023/10/06 10:03:12;;;;;;;13.63;3.15;;;;;;;;;;5068282;27;99905;-72
2023/10/06 10:05:41;;;;;;;8.98;3.00;;;;;;;;;;5069257;27;98705;-72
2023/10/06 10:08:08;;;;;;;8.27;3.28;;;;;;;;;;5067643;27;99459;-72
2023/10/06 10:10:36;;;;;;;6.88;3.50;;;;;;;;;;5067625;27;98897;-73
2023/10/06 10:13:13;;;;;;;6.80;3.05;;;;;;;;;;5067571;27;98140;-72
2023/10/06 10:16:03;;;;;;;6.65;3.25;;;;;;;;;;5068541;27;98762;-73
2023/10/06 10:18:34;;;;;;;6.85;3.38;;;;;;;;;;5059654;27;99250;-73
2023/10/06 10:21:01;;;;;;;19.50;5.72;;;;;;;;;;5068686;27;99005;-73
2023/10/06 10:23:31;;;;;;;8.00;3.67;;;;;;;;;;5071803;27;99279;-73
2023/10/06 10:26:18;;;;;;;7.50;3.53;;;;;;;;;;5068674;27;98587;-72
2023/10/06 10:29:04;;;;;;;7.88;3.00;;;;;;;;;;5057955;27;98466;-72
2023/10/06 10:31:36;;;;;;;33.53;4.00;;;;;;;;;;5067719;27;99327;-72
2023/10/06 10:34:25;;;;;;;8.02;3.05;;;;;;;;;;5068446;27;98230;-72
2023/10/06 10:36:54;;;;;;;6.45;2.88;;;;;;;;;;5068691;27;99656;-72
2023/10/06 10:39:22;;;;;;;9.43;3.47;;;;;;;;;;5066371;27;99123;-72
2023/10/06 10:41:48;;;;;;;6.90;3.08;;;;;;;;;;5068388;27;98269;-72
2023/10/06 10:44:20;;;;;;;10.55;5.15;;;;;;;;;;5068250;27;98935;-72
2023/10/06 10:46:56;;;;;;;9.65;2.90;;;;;;;;;;5070682;27;99060;-72
2023/10/06 10:49:23;;;;;;;9.32;3.10;;;;;;;;;;5067904;27;98557;-72
2023/10/06 10:51:53;;;;;;;3.22;2.55;;;;;;;;;;5060497;27;99931;-72
2023/10/06 10:54:26;;;;;;;4.28;3.17;;;;;;;;;;5067607;27;98232;-72
2023/10/06 10:56:53;;;;;;;10.63;2.75;;;;;;;;;;5068159;27;98917;-72
2023/10/06 10:59:20;;;;;;;5.22;2.63;;;;;;;;;;5066626;27;99008;-72
2023/10/06 11:01:53;;;;;;;4.63;2.85;;;;;;;;;;5068129;27;98300;-72
2023/10/06 11:04:30;;;;;;;5.93;2.92;;;;;;;;;;5066919;27;99417;-72
2023/10/06 11:07:01;;;;;;;8.13;3.63;;;;;;;;;;5066683;27;99016;-72
2023/10/06 11:09:39;;;;;;;8.18;2.70;;;;;;;;;;5070910;27;98271;-72
2023/10/06 11:12:19;;;;;;;8.05;2.97;;;;;;;;;;5067968;27;99362;-72
2023/10/06 11:14:51;;;;;;;7.50;3.33;;;;;;;;;;5066554;27;98506;-71
2023/10/06 11:17:20;;;;;;;15.43;3.53;;;;;;;;;;5067250;27;98298;-73
2023/10/06 11:19:58;;;;;;;12.80;3.30;;;;;;;;;;5067300;27;100021;-72
2023/10/06 11:22:28;;;;;;;7.90;3.15;;;;;;;;;;5067626;27;98142;-73
2023/10/06 11:24:57;;;;;;;9.60;2.92;;;;;;;;;;5067919;27;99865;-71
2023/10/06 11:27:24;;;;;;;8.65;2.50;;;;;;;;;;5066433;27;99024;-71
2023/10/06 11:29:57;;;;;;;7.07;3.38;;;;;;;;;;5066365;27;98188;-71
2023/10/06 11:32:24;;;;;;;6.72;2.50;;;;;;;;;;5070522;27;99826;-73
2023/10/06 11:34:54;;;;;;;12.77;3.35;;;;;;;;;;5067070;27;98118;-72
2023/10/06 11:37:24;;;;;;;5.95;2.65;;;;;;;;;;5067680;27;98522;-72
2023/10/06 11:39:52;;;;;;;7.95;2.90;;;;;;;;;;5067441;27;100022;-72
2023/10/06 11:42:25;;;;;;;8.68;2.67;;;;;;;;;;5066685;27;98271;-73
2023/10/06 11:44:55;;;;;;;11.10;3.40;;;;;;;;;;5067686;27;99434;-72
2023/10/06 11:47:27;;;;;;;18.02;3.45;;;;;;;;;;5067394;27;99961;-72
2023/10/06 11:49:58;;;;;;;6.93;2.85;;;;;;;;;;5066759;27;98242;-75
2023/10/06 11:52:27;;;;;;;9.73;3.05;;;;;;;;;;5067069;27;99376;-75
2023/10/06 11:54:56;;;;;;;9.23;2.67;;;;;;;;;;5067765;27;99964;-78
2023/10/06 11:57:44;;;;;;;7.63;2.67;;;;;;;;;;5066627;27;99735;-74
2023/10/06 12:00:12;;;;;;;11.77;3.05;;;;;;;;;;5060843;27;99327;-76
2023/10/06 12:02:45;;;;;;;5.03;2.72;;;;;;;;;;5048784;27;98302;-75
2023/10/06 12:05:13;;;;;;;10.27;3.47;;;;;;;;;;5051555;27;99327;-77
2023/10/06 12:07:41;;;;;;;9.13;3.10;;;;;;;;;;5067107;27;100965;-75
2023/10/06 12:10:08;;;;;;;8.27;2.50;;;;;;;;;;5069231;27;98404;-74
2023/10/06 12:12:35;;;;;;;5.60;2.88;;;;;;;;;;5057384;27;99370;-75
2023/10/06 12:15:02;;;;;;;6.20;2.75;;;;;;;;;;5073531;27;100350;-75
2023/10/06 12:17:30;;;;;;;7.43;3.00;;;;;;;;;;5069625;27;99007;-75
2023/10/06 12:19:57;;;;;;;6.07;2.90;;;;;;;;;;5069737;27;99853;-74
2023/10/06 12:22:27;;;;;;;6.97;2.13;;;;;;;;;;5070158;27;98293;-76
2023/10/06 12:25:07;;;;;;;7.22;2.97;;;;;;;;;;5070152;27;99493;-76
2023/10/06 12:27:33;;;;;;;8.93;2.33;;;;;;;;;;5070279;27;100251;-74
2023/10/06 12:30:03;;;;;;;9.77;3.15;;;;;;;;;;5070498;27;98451;-74
2023/10/06 12:32:35;;;;;;;4.63;2.72;;;;;;;;;;5070174;27;100082;-74
2023/10/06 12:35:05;;;;;;;7.70;3.90;;;;;;;;;;5070478;27;100224;-74
2023/10/06 12:37:33;;;;;;;9.10;3.03;;;;;;;;;;5073072;27;98148;-74
2023/10/06 12:40:03;;;;;;;7.72;3.03;;;;;;;;;;5056040;27;99204;-74
2023/10/06 12:42:31;;;;;;;7.40;2.97;;;;;;;;;;5049767;27;98137;-73
2023/10/06 12:44:58;;;;;;;7.70;3.35;;;;;;;;;;5059523;27;99005;-72
2023/10/06 12:47:27;;;;;;;10.63;3.15;;;;;;;;;;5050570;27;98907;-74
2023/10/06 12:49:58;;;;;;;8.32;2.90;;;;;;;;;;5059004;27;98256;-73
2023/10/06 12:52:25;;;;;;;9.80;3.42;;;;;;;;;;5069203;27;99190;-74
2023/10/06 12:54:51;;;;;;;12.07;3.30;;;;;;;;;;5064310;27;99074;-73
2023/10/06 12:57:20;;;;;;;8.73;3.25;;;;;;;;;;5068708;27;98380;-74
2023/10/06 12:59:48;;;;;;;7.75;3.35;;;;;;;;;;5072718;27;99123;-71
2023/10/06 13:02:24;;;;;;;8.60;3.28;;;;;;;;;;5070168;27;98081;-73
2023/10/06 13:04:53;;;;;;;8.90;3.28;;;;;;;;;;5070098;27;98666;-73
2023/10/06 13:07:20;;;;;;;5.10;2.53;;;;;;;;;;5069047;27;99339;-73
2023/10/06 13:09:49;;;;;;;9.73;2.72;;;;;;;;;;5068833;27;98218;-73
2023/10/06 13:12:16;;;;;;;14.50;3.38;;;;;;;;;;5069874;27;99096;-73
2023/10/06 13:14:43;;;;;;;9.98;2.80;;;;;;;;;;5068385;27;100308;-73
2023/10/06 13:17:09;;;;;;;6.30;2.70;;;;;;;;;;5069802;27;98234;-73
2023/10/06 13:19:36;;;;;;;11.88;3.40;;;;;;;;;;5069096;27;98900;-71
2023/10/06 13:22:03;;;;;;;7.57;2.90;;;;;;;;;;5073126;27;99074;-73
2023/10/06 13:24:29;;;;;;;14.00;3.83;;;;;;;;;;5069312;27;99385;-73
2023/10/06 13:26:58;;;;;;;7.15;2.95;;;;;;;;;;5068740;27;99242;-73
2023/10/06 13:29:24;;;;;;;5.03;2.97;;;;;;;;;;5069620;27;98188;-73
2023/10/06 13:31:50;;;;;;;11.10;3.53;;;;;;;;;;5069590;27;99723;-73
2023/10/06 13:34:19;;;;;;;4.57;2.85;;;;;;;;;;5067423;27;100190;-73
2023/10/06 13:36:47;;;;;;;8.80;4.28;;;;;;;;;;5069219;27;98219;-73
2023/10/06 13:39:15;;;;;;;5.68;2.80;;;;;;;;;;5069020;27;98901;-72
2023/10/06 13:41:46;;;;;;;15.60;3.70;;;;;;;;;;5068681;27;100617;-73
2023/10/06 13:44:13;;;;;;;7.57;3.15;;;;;;;;;;5072506;27;98251;-72
2023/10/06 13:46:40;;;;;;;11.90;3.10;;;;;;;;;;5065582;27;99909;-72
2023/10/06 13:49:07;;;;;;;10.73;2.85;;;;;;;;;;5059402;27;99222;-72
2023/10/06 13:51:33;;;;;;;5.72;2.70;;;;;;;;;;5063650;27;99109;-72
2023/10/06 13:54:00;;;;;;;10.63;3.60;;;;;;;;;;5080062;27;98985;-72
2023/10/06 13:56:31;;;;;;;6.65;2.53;;;;;;;;;;5062987;27;98274;-71
2023/10/06 13:58:58;;;;;;;7.03;2.58;;;;;;;;;;5071398;27;99442;-71
2023/10/06 14:01:25;;;;;;;4.82;2.65;;;;;;;;;;5053358;27;100015;-72
2023/10/06 14:03:52;;;;;;;8.52;3.22;;;;;;;;;;5048307;27;98775;-72
2023/10/06 14:06:18;;;;;;;6.90;3.08;;;;;;;;;;5069433;27;99763;-73
2023/10/06 14:08:45;;;;;;;10.73;2.85;;;;;;;;;;5059666;27;98323;-72
2023/10/06 14:11:11;;;;;;;6.53;2.60;;;;;;;;;;5068652;27;99437;-73
2023/10/06 14:13:42;;;;;;;8.60;2.60;;;;;;;;;;5068164;27;99993;-72
2023/10/06 14:16:09;;;;;;;4.07;2.47;;;;;;;;;;5068236;27;99173;-71
2023/10/06 14:18:38;;;;;;;4.03;2.35;;;;;;;;;;5068226;27;98788;-71
2023/10/06 14:21:09;;;;;;;9.52;3.17;;;;;;;;;;5063911;27;99280;-72
2023/10/06 14:23:43;;;;;;;10.18;2.80;;;;;;;;;;5061732;27;99053;-72
2023/10/06 14:26:11;;;;;;;9.45;2.80;;;;;;;;;;5054795;27;99708;-73
2023/10/06 14:28:39;;;;;;;4.35;2.92;;;;;;;;;;5054304;27;99427;-72
2023/10/06 14:31:34;;;;;;;9.15;2.78;;;;;;;;;;5067496;27;99886;-71
2023/10/06 14:34:33;;;;;;;8.00;3.00;;;;;;;;;;5063409;27;99996;-71
2023/10/06 14:36:46;;;;;;;10.90;3.38;;;;;;;;;;5067717;27;98195;-74
2023/10/06 14:47:09;;;;;;;16.02;3.53;;;;;;;;;;5052174;27;99140;-73
2023/10/06 14:49:39;;;;;;;5.05;2.78;;;;;;;;;;5064934;27;99030;-72
2023/10/06 14:52:08;;;;;;;10.65;4.32;;;;;;;;;;5053238;27;100520;-71
2023/10/06 14:54:34;;;;;;;7.65;2.97;;;;;;;;;;5046959;27;100035;-73
2023/10/06 14:57:02;;;;;;;10.75;3.60;;;;;;;;;;5047894;27;98941;-72
2023/10/06 14:59:31;;;;;;;9.95;3.28;;;;;;;;;;5046654;27;98912;-72
2023/10/06 15:02:03;;;;;;;12.07;3.22;;;;;;;;;;5056417;27;99321;-75
2023/10/06 15:04:30;;;;;;;5.25;2.35;;;;;;;;;;5062578;27;98227;-73